sensor_id;sensor_type;location;lat;lon;timestamp;pressure;altitude;pressure_sealevel;temperature;humidity
36260;BME280;22296;50.824;5.644;2022-12-10T00:01:32;99906.81;;;10.55;64.61
36260;BME280;22296;50.824;5.644;2022-12-10T00:03:59;99899.66;;;10.54;64.73
36260;BME280;22296;50.824;5.644;2022-12-10T00:06:27;99897.53;;;10.51;64.58
36260;BME280;22296;50.824;5.644;2022-12-10T00:08:54;99901.75;;;10.49;64.76
36260;BME280;22296;50.824;5.644;2022-12-10T00:11:21;99904.31;;;10.45;65.01
36260;BME280;22296;50.824;5.644;2022-12-10T00:13:48;99903.81;;;10.43;64.94
36260;BME280;22296;50.824;5.644;2022-12-10T00:16:17;99902.16;;;10.42;64.89
36260;BME280;22296;50.824;5.644;2022-12-10T00:18:44;99898.72;;;10.37;65.04
36260;BME280;22296;50.824;5.644;2022-12-10T00:21:12;99905.88;;;10.38;65.13
36260;BME280;22296;50.824;5.644;2022-12-10T00:23:39;99904.56;;;10.35;64.97
36260;BME280;22296;50.824;5.644;2022-12-10T00:26:07;99898.22;;;10.35;65.02
36260;BME280;22296;50.824;5.644;2022-12-10T00:28:36;99902.44;;;10.32;65.28
36260;BME280;22296;50.824;5.644;2022-12-10T00:31:03;99904.69;;;10.30;65.16
36260;BME280;22296;50.824;5.644;2022-12-10T00:33:30;99910.19;;;10.30;64.99
36260;BME280;22296;50.824;5.644;2022-12-10T00:36:01;99908.06;;;10.27;65.22
36260;BME280;22296;50.824;5.644;2022-12-10T00:38:27;99914.69;;;10.26;65.15
36260;BME280;22296;50.824;5.644;2022-12-10T00:40:54;99924.06;;;10.25;65.15
36260;BME280;22296;50.824;5.644;2022-12-10T00:43:21;99920.00;;;10.22;65.10
36260;BME280;22296;50.824;5.644;2022-12-10T00:45:47;99917.75;;;10.24;65.14
36260;BME280;22296;50.824;5.644;2022-12-10T00:48:14;99915.94;;;10.20;65.31
36260;BME280;22296;50.824;5.644;2022-12-10T00:50:40;99909.94;;;10.18;65.21
36260;BME280;22296;50.824;5.644;2022-12-10T00:53:07;99908.78;;;10.19;65.25
36260;BME280;22296;50.824;5.644;2022-12-10T00:55:34;99903.91;;;10.16;65.46
36260;BME280;22296;50.824;5.644;2022-12-10T00:58:00;99908.63;;;10.15;65.10
36260;BME280;22296;50.824;5.644;2022-12-10T01:00:27;99896.16;;;10.18;65.21
36260;BME280;22296;50.824;5.644;2022-12-10T01:02:54;99892.38;;;10.14;65.18
36260;BME280;22296;50.824;5.644;2022-12-10T01:05:20;99901.56;;;10.09;65.26
36260;BME280;22296;50.824;5.644;2022-12-10T01:07:47;99906.44;;;10.12;65.30
36260;BME280;22296;50.824;5.644;2022-12-10T01:10:16;99895.72;;;10.11;65.40
36260;BME280;22296;50.824;5.644;2022-12-10T01:12:43;99900.75;;;10.09;65.37
36260;BME280;22296;50.824;5.644;2022-12-10T01:15:11;99899.44;;;10.06;65.62
36260;BME280;22296;50.824;5.644;2022-12-10T01:17:38;99912.88;;;10.08;65.27
36260;BME280;22296;50.824;5.644;2022-12-10T01:20:04;99918.38;;;10.08;65.48
36260;BME280;22296;50.824;5.644;2022-12-10T01:22:32;99915.13;;;10.06;65.24
36260;BME280;22296;50.824;5.644;2022-12-10T01:24:59;99921.97;;;10.08;65.58
36260;BME280;22296;50.824;5.644;2022-12-10T01:27:26;99912.38;;;10.06;65.43
36260;BME280;22296;50.824;5.644;2022-12-10T01:29:54;99920.63;;;10.06;65.40
36260;BME280;22296;50.824;5.644;2022-12-10T01:32:21;99908.91;;;10.00;65.47
36260;BME280;22296;50.824;5.644;2022-12-10T01:34:48;99922.06;;;10.03;65.49
36260;BME280;22296;50.824;5.644;2022-12-10T01:37:14;99922.91;;;10.04;65.36
36260;BME280;22296;50.824;5.644;2022-12-10T01:39:41;99926.28;;;10.01;65.30
36260;BME280;22296;50.824;5.644;2022-12-10T01:42:08;99937.56;;;9.99;65.52
36260;BME280;22296;50.824;5.644;2022-12-10T01:47:09;99944.22;;;9.98;65.72
36260;BME280;22296;50.824;5.644;2022-12-10T01:49:37;99944.03;;;9.95;65.60
36260;BME280;22296;50.824;5.644;2022-12-10T01:52:04;99946.78;;;9.95;65.73
36260;BME280;22296;50.824;5.644;2022-12-10T01:54:49;99943.69;;;9.96;65.64
36260;BME280;22296;50.824;5.644;2022-12-10T01:57:17;99952.28;;;9.95;65.54
36260;BME280;22296;50.824;5.644;2022-12-10T01:59:45;99943.53;;;9.93;65.77
36260;BME280;22296;50.824;5.644;2022-12-10T02:02:28;99952.56;;;9.93;65.65
36260;BME280;22296;50.824;5.644;2022-12-10T02:15:27;99961.16;;;9.92;65.71
36260;BME280;22296;50.824;5.644;2022-12-10T02:17:58;99964.31;;;9.99;65.47
36260;BME280;22296;50.824;5.644;2022-12-10T02:20:30;99952.91;;;9.92;65.46
36260;BME280;22296;50.824;5.644;2022-12-10T02:23:03;99949.66;;;9.90;65.82
36260;BME280;22296;50.824;5.644;2022-12-10T02:25:47;99949.03;;;9.93;65.48
36260;BME280;22296;50.824;5.644;2022-12-10T02:30:41;99941.47;;;9.85;65.83
36260;BME280;22296;50.824;5.644;2022-12-10T02:33:08;99943.94;;;9.86;65.85
36260;BME280;22296;50.824;5.644;2022-12-10T02:35:36;99944.75;;;9.87;65.68
36260;BME280;22296;50.824;5.644;2022-12-10T02:38:07;99942.63;;;9.84;66.02
36260;BME280;22296;50.824;5.644;2022-12-10T02:40:35;99945.06;;;9.85;65.69
36260;BME280;22296;50.824;5.644;2022-12-10T02:43:07;99944.75;;;9.87;65.74
36260;BME280;22296;50.824;5.644;2022-12-10T02:45:35;99951.06;;;9.87;65.78
36260;BME280;22296;50.824;5.644;2022-12-10T02:48:03;99954.34;;;9.89;65.44
36260;BME280;22296;50.824;5.644;2022-12-10T02:50:49;99952.50;;;9.85;66.06
36260;BME280;22296;50.824;5.644;2022-12-10T02:53:15;99951.25;;;9.91;65.43
36260;BME280;22296;50.824;5.644;2022-12-10T02:56:08;99958.00;;;9.85;65.57
36260;BME280;22296;50.824;5.644;2022-12-10T02:58:56;99950.97;;;9.79;65.98
36260;BME280;22296;50.824;5.644;2022-12-10T03:03:57;99957.00;;;9.81;65.72
36260;BME280;22296;50.824;5.644;2022-12-10T03:06:30;99950.78;;;9.75;66.09
36260;BME280;22296;50.824;5.644;2022-12-10T03:09:09;99950.47;;;9.77;65.86
36260;BME280;22296;50.824;5.644;2022-12-10T03:11:38;99955.78;;;9.87;65.44
36260;BME280;22296;50.824;5.644;2022-12-10T03:14:40;99954.38;;;9.76;65.73
36260;BME280;22296;50.824;5.644;2022-12-10T03:17:00;99958.59;;;9.82;65.53
36260;BME280;22296;50.824;5.644;2022-12-10T03:19:32;99958.59;;;9.82;65.69
36260;BME280;22296;50.824;5.644;2022-12-10T03:22:01;99949.84;;;9.80;65.61
36260;BME280;22296;50.824;5.644;2022-12-10T03:24:29;99958.84;;;9.71;66.04
36260;BME280;22296;50.824;5.644;2022-12-10T03:26:57;99971.59;;;9.81;65.52
36260;BME280;22296;50.824;5.644;2022-12-10T03:29:28;99960.47;;;9.72;66.04
36260;BME280;22296;50.824;5.644;2022-12-10T03:31:56;99970.75;;;9.81;65.59
36260;BME280;22296;50.824;5.644;2022-12-10T03:34:24;99965.56;;;9.79;65.62
36260;BME280;22296;50.824;5.644;2022-12-10T03:36:51;99960.97;;;9.74;65.87
36260;BME280;22296;50.824;5.644;2022-12-10T03:39:19;99957.19;;;9.70;66.28
36260;BME280;22296;50.824;5.644;2022-12-10T03:41:46;99958.84;;;9.71;66.64
36260;BME280;22296;50.824;5.644;2022-12-10T03:44:12;99969.00;;;9.85;66.10
36260;BME280;22296;50.824;5.644;2022-12-10T03:46:39;99960.38;;;9.78;66.19
36260;BME280;22296;50.824;5.644;2022-12-10T03:49:06;99959.88;;;9.76;66.14
36260;BME280;22296;50.824;5.644;2022-12-10T03:51:32;99964.72;;;9.79;65.73
36260;BME280;22296;50.824;5.644;2022-12-10T03:53:59;99959.34;;;9.73;65.95
36260;BME280;22296;50.824;5.644;2022-12-10T03:56:26;99960.78;;;9.71;66.12
36260;BME280;22296;50.824;5.644;2022-12-10T03:58:53;99955.59;;;9.69;66.03
36260;BME280;22296;50.824;5.644;2022-12-10T04:01:19;99959.78;;;9.67;65.94
36260;BME280;22296;50.824;5.644;2022-12-10T04:03:46;99961.09;;;9.69;65.70
36260;BME280;22296;50.824;5.644;2022-12-10T04:06:14;99963.31;;;9.67;65.93
36260;BME280;22296;50.824;5.644;2022-12-10T04:08:42;99965.16;;;9.72;65.82
36260;BME280;22296;50.824;5.644;2022-12-10T04:11:09;99965.06;;;9.63;65.79
36260;BME280;22296;50.824;5.644;2022-12-10T04:13:36;99956.81;;;9.63;65.73
36260;BME280;22296;50.824;5.644;2022-12-10T04:16:23;99963.84;;;9.69;65.54
36260;BME280;22296;50.824;5.644;2022-12-10T04:21:27;99962.69;;;9.70;65.47
36260;BME280;22296;50.824;5.644;2022-12-10T04:24:12;99971.19;;;9.60;65.79
36260;BME280;22296;50.824;5.644;2022-12-10T04:27:00;99972.91;;;9.56;65.85
36260;BME280;22296;50.824;5.644;2022-12-10T04:29:29;99966.38;;;9.52;65.90
36260;BME280;22296;50.824;5.644;2022-12-10T04:31:56;99972.91;;;9.56;65.86
36260;BME280;22296;50.824;5.644;2022-12-10T04:34:23;99963.84;;;9.69;65.21
36260;BME280;22296;50.824;5.644;2022-12-10T04:36:50;99970.69;;;9.58;65.90
36260;BME280;22296;50.824;5.644;2022-12-10T04:39:17;99979.66;;;9.64;65.58
36260;BME280;22296;50.824;5.644;2022-12-10T04:41:45;99980.25;;;9.74;64.91
36260;BME280;22296;50.824;5.644;2022-12-10T04:44:12;99969.03;;;9.57;65.53
36260;BME280;22296;50.824;5.644;2022-12-10T04:46:39;99974.53;;;9.57;65.49
36260;BME280;22296;50.824;5.644;2022-12-10T04:49:06;99978.94;;;9.58;65.50
36260;BME280;22296;50.824;5.644;2022-12-10T04:51:33;99984.50;;;9.53;65.58
36260;BME280;22296;50.824;5.644;2022-12-10T04:54:00;99991.28;;;9.61;65.31
36260;BME280;22296;50.824;5.644;2022-12-10T04:56:26;99988.91;;;9.54;65.47
36260;BME280;22296;50.824;5.644;2022-12-10T04:58:54;99992.47;;;9.55;65.50
36260;BME280;22296;50.824;5.644;2022-12-10T05:01:21;99984.50;;;9.53;65.56
36260;BME280;22296;50.824;5.644;2022-12-10T05:03:48;99981.88;;;9.48;65.73
36260;BME280;22296;50.824;5.644;2022-12-10T05:06:16;99986.25;;;9.49;65.69
36260;BME280;22296;50.824;5.644;2022-12-10T05:08:43;99986.25;;;9.49;65.71
36260;BME280;22296;50.824;5.644;2022-12-10T05:11:11;99984.13;;;9.46;65.72
36260;BME280;22296;50.824;5.644;2022-12-10T05:13:38;99989.09;;;9.44;66.04
36260;BME280;22296;50.824;5.644;2022-12-10T05:16:06;99981.44;;;9.41;65.93
36260;BME280;22296;50.824;5.644;2022-12-10T05:18:33;99985.72;;;9.47;65.65
36260;BME280;22296;50.824;5.644;2022-12-10T05:21:01;99981.38;;;9.46;65.72
36260;BME280;22296;50.824;5.644;2022-12-10T05:23:28;99993.47;;;9.45;65.68
36260;BME280;22296;50.824;5.644;2022-12-10T05:28:24;99983.59;;;9.44;65.60
36260;BME280;22296;50.824;5.644;2022-12-10T05:30:51;99982.06;;;9.38;65.70
36260;BME280;22296;50.824;5.644;2022-12-10T05:33:18;99978.72;;;9.55;65.39
36260;BME280;22296;50.824;5.644;2022-12-10T05:38:40;99984.19;;;9.41;65.69
36260;BME280;22296;50.824;5.644;2022-12-10T05:43:40;99983.91;;;9.43;65.51
36260;BME280;22296;50.824;5.644;2022-12-10T05:46:09;99983.50;;;9.49;65.28
36260;BME280;22296;50.824;5.644;2022-12-10T05:48:35;99982.97;;;9.47;65.11
36260;BME280;22296;50.824;5.644;2022-12-10T05:51:05;99985.44;;;9.62;64.63
36260;BME280;22296;50.824;5.644;2022-12-10T05:53:32;99987.47;;;9.43;65.51
36260;BME280;22296;50.824;5.644;2022-12-10T05:56:03;99991.84;;;9.44;65.38
36260;BME280;22296;50.824;5.644;2022-12-10T05:58:30;99996.56;;;9.44;65.21
36260;BME280;22296;50.824;5.644;2022-12-10T06:00:57;99991.44;;;9.37;65.54
36260;BME280;22296;50.824;5.644;2022-12-10T06:03:24;99993.47;;;9.32;65.88
36260;BME280;22296;50.824;5.644;2022-12-10T06:05:51;99990.72;;;9.45;65.36
36260;BME280;22296;50.824;5.644;2022-12-10T06:08:17;100004.09;;;9.38;65.57
36260;BME280;22296;50.824;5.644;2022-12-10T06:10:44;99999.38;;;9.39;65.31
36260;BME280;22296;50.824;5.644;2022-12-10T06:13:10;100000.19;;;9.39;65.31
36260;BME280;22296;50.824;5.644;2022-12-10T06:15:40;100001.94;;;9.35;65.56
36260;BME280;22296;50.824;5.644;2022-12-10T06:18:08;100006.63;;;9.48;64.80
36260;BME280;22296;50.824;5.644;2022-12-10T06:20:37;100008.34;;;9.44;65.01
36260;BME280;22296;50.824;5.644;2022-12-10T06:23:03;100011.81;;;9.36;65.17
36260;BME280;22296;50.824;5.644;2022-12-10T06:25:30;100023.25;;;9.43;65.10
36260;BME280;22296;50.824;5.644;2022-12-10T06:27:57;100020.66;;;9.33;65.41
36260;BME280;22296;50.824;5.644;2022-12-10T06:30:23;100027.59;;;9.31;65.66
36260;BME280;22296;50.824;5.644;2022-12-10T06:32:50;100023.34;;;9.38;65.17
36260;BME280;22296;50.824;5.644;2022-12-10T06:35:16;100016.31;;;9.46;64.86
36260;BME280;22296;50.824;5.644;2022-12-10T06:37:43;100020.19;;;9.45;64.94
36260;BME280;22296;50.824;5.644;2022-12-10T06:40:10;100030.38;;;9.44;64.86
36260;BME280;22296;50.824;5.644;2022-12-10T06:42:37;100027.22;;;9.37;65.39
36260;BME280;22296;50.824;5.644;2022-12-10T06:45:03;100023.63;;;9.23;65.79
36260;BME280;22296;50.824;5.644;2022-12-10T06:47:30;100022.59;;;9.33;65.60
36260;BME280;22296;50.824;5.644;2022-12-10T06:49:57;100026.38;;;9.23;65.50
36260;BME280;22296;50.824;5.644;2022-12-10T06:52:24;100027.56;;;9.17;65.92
36260;BME280;22296;50.824;5.644;2022-12-10T06:54:50;100036.66;;;9.18;65.94
36260;BME280;22296;50.824;5.644;2022-12-10T06:57:17;100036.09;;;9.15;65.89
36260;BME280;22296;50.824;5.644;2022-12-10T06:59:44;100036.22;;;9.24;65.63
36260;BME280;22296;50.824;5.644;2022-12-10T07:02:11;100033.41;;;9.29;65.48
36260;BME280;22296;50.824;5.644;2022-12-10T07:04:38;100044.47;;;9.24;65.59
36260;BME280;22296;50.824;5.644;2022-12-10T07:07:05;100052.13;;;9.27;65.08
36260;BME280;22296;50.824;5.644;2022-12-10T07:09:35;100048.97;;;9.20;65.66
36260;BME280;22296;50.824;5.644;2022-12-10T07:12:02;100051.88;;;9.10;66.12
36260;BME280;22296;50.824;5.644;2022-12-10T07:14:29;100051.88;;;9.10;65.98
36260;BME280;22296;50.824;5.644;2022-12-10T07:16:56;100044.81;;;9.23;65.38
36260;BME280;22296;50.824;5.644;2022-12-10T07:19:23;100048.47;;;9.18;65.71
36260;BME280;22296;50.824;5.644;2022-12-10T07:21:49;100041.31;;;9.17;65.82
36260;BME280;22296;50.824;5.644;2022-12-10T07:24:17;100039.91;;;9.20;65.63
36260;BME280;22296;50.824;5.644;2022-12-10T07:26:45;100047.03;;;9.21;65.81
36260;BME280;22296;50.824;5.644;2022-12-10T07:29:21;100054.38;;;9.25;65.66
36260;BME280;22296;50.824;5.644;2022-12-10T07:31:48;100051.13;;;9.23;65.52
36260;BME280;22296;50.824;5.644;2022-12-10T07:34:15;100057.22;;;9.20;65.30
36260;BME280;22296;50.824;5.644;2022-12-10T07:36:42;100056.72;;;9.18;65.66
36260;BME280;22296;50.824;5.644;2022-12-10T07:39:09;100059.47;;;9.18;65.79
36260;BME280;22296;50.824;5.644;2022-12-10T07:41:35;100060.66;;;9.12;65.80
36260;BME280;22296;50.824;5.644;2022-12-10T07:44:03;100064.97;;;9.18;65.71
36260;BME280;22296;50.824;5.644;2022-12-10T07:46:30;100068.91;;;9.12;66.19
36260;BME280;22296;50.824;5.644;2022-12-10T07:48:59;100061.28;;;9.09;66.05
36260;BME280;22296;50.824;5.644;2022-12-10T07:51:26;100070.84;;;9.11;66.03
36260;BME280;22296;50.824;5.644;2022-12-10T07:53:53;100063.09;;;9.13;65.90
36260;BME280;22296;50.824;5.644;2022-12-10T07:56:20;100060.13;;;9.10;66.09
36260;BME280;22296;50.824;5.644;2022-12-10T07:58:48;100058.88;;;9.21;65.34
36260;BME280;22296;50.824;5.644;2022-12-10T08:01:16;100068.91;;;9.12;65.88
36260;BME280;22296;50.824;5.644;2022-12-10T08:03:43;100071.25;;;9.18;65.57
36260;BME280;22296;50.824;5.644;2022-12-10T08:06:14;100076.56;;;9.15;65.81
36260;BME280;22296;50.824;5.644;2022-12-10T08:08:41;100065.94;;;9.08;65.74
36260;BME280;22296;50.824;5.644;2022-12-10T08:11:09;100068.97;;;9.07;65.83
36260;BME280;22296;50.824;5.644;2022-12-10T08:13:36;100072.78;;;9.11;65.76
36260;BME280;22296;50.824;5.644;2022-12-10T08:16:03;100081.63;;;9.08;66.06
36260;BME280;22296;50.824;5.644;2022-12-10T08:18:31;100083.34;;;9.04;65.81
36260;BME280;22296;50.824;5.644;2022-12-10T08:20:58;100090.84;;;9.17;65.56
36260;BME280;22296;50.824;5.644;2022-12-10T08:23:24;100096.84;;;9.19;65.52
36260;BME280;22296;50.824;5.644;2022-12-10T08:25:51;100098.78;;;9.18;65.30
36260;BME280;22296;50.824;5.644;2022-12-10T08:28:18;100101.16;;;9.25;65.34
36260;BME280;22296;50.824;5.644;2022-12-10T08:30:47;100096.25;;;9.22;65.36
36260;BME280;22296;50.824;5.644;2022-12-10T08:33:14;100106.97;;;9.24;65.38
36260;BME280;22296;50.824;5.644;2022-12-10T08:35:41;100110.81;;;9.23;65.88
36260;BME280;22296;50.824;5.644;2022-12-10T08:38:07;100112.25;;;9.20;65.86
36260;BME280;22296;50.824;5.644;2022-12-10T08:40:37;100111.19;;;9.16;66.09
36260;BME280;22296;50.824;5.644;2022-12-10T08:43:04;100112.84;;;9.17;66.45
36260;BME280;22296;50.824;5.644;2022-12-10T08:45:31;100114.69;;;9.22;66.15
36260;BME280;22296;50.824;5.644;2022-12-10T08:47:58;100121.50;;;9.24;66.26
36260;BME280;22296;50.824;5.644;2022-12-10T08:50:24;100125.41;;;9.23;66.22
36260;BME280;22296;50.824;5.644;2022-12-10T08:52:51;100129.16;;;9.27;65.75
36260;BME280;22296;50.824;5.644;2022-12-10T08:55:17;100125.09;;;9.25;66.21
36260;BME280;22296;50.824;5.644;2022-12-10T08:57:44;100129.25;;;9.22;66.65
36260;BME280;22296;50.824;5.644;2022-12-10T09:00:11;100129.72;;;9.29;66.14
36260;BME280;22296;50.824;5.644;2022-12-10T09:02:39;100128.72;;;9.39;66.04
36260;BME280;22296;50.824;5.644;2022-12-10T09:05:06;100130.22;;;9.31;66.69
36260;BME280;22296;50.824;5.644;2022-12-10T09:07:34;100133.78;;;9.32;66.49
36260;BME280;22296;50.824;5.644;2022-12-10T09:10:00;100134.06;;;9.30;66.67
36260;BME280;22296;50.824;5.644;2022-12-10T09:12:27;100138.59;;;9.40;66.39
36260;BME280;22296;50.824;5.644;2022-12-10T09:14:54;100142.28;;;9.35;66.46
36260;BME280;22296;50.824;5.644;2022-12-10T09:17:20;100145.31;;;9.34;66.74
36260;BME280;22296;50.824;5.644;2022-12-10T09:19:47;100145.81;;;9.36;66.67
36260;BME280;22296;50.824;5.644;2022-12-10T09:22:14;100146.34;;;9.38;66.81
36260;BME280;22296;50.824;5.644;2022-12-10T09:24:40;100143.38;;;9.34;66.88
36260;BME280;22296;50.824;5.644;2022-12-10T09:27:07;100154.91;;;9.36;66.75
36260;BME280;22296;50.824;5.644;2022-12-10T09:29:33;100146.56;;;9.41;66.63
36260;BME280;22296;50.824;5.644;2022-12-10T09:32:00;100143.78;;;9.41;66.86
36260;BME280;22296;50.824;5.644;2022-12-10T09:34:26;100157.03;;;9.39;66.75
36260;BME280;22296;50.824;5.644;2022-12-10T09:36:53;100156.16;;;9.44;66.75
36260;BME280;22296;50.824;5.644;2022-12-10T09:39:20;100153.09;;;9.45;66.45
36260;BME280;22296;50.824;5.644;2022-12-10T09:42:24;100165.75;;;9.46;66.68
36260;BME280;22296;50.824;5.644;2022-12-10T09:47:36;100152.28;;;9.45;66.58
36260;BME280;22296;50.824;5.644;2022-12-10T09:52:51;100163.13;;;9.55;66.64
36260;BME280;22296;50.824;5.644;2022-12-10T09:55:31;100168.41;;;9.51;66.60
36260;BME280;22296;50.824;5.644;2022-12-10T09:57:58;100166.38;;;9.57;66.36
36260;BME280;22296;50.824;5.644;2022-12-10T10:02:56;100159.06;;;9.52;66.59
36260;BME280;22296;50.824;5.644;2022-12-10T10:05:29;100156.59;;;9.51;66.85
36260;BME280;22296;50.824;5.644;2022-12-10T10:07:58;100155.75;;;9.50;66.65
36260;BME280;22296;50.824;5.644;2022-12-10T10:13:16;100158.66;;;9.59;66.67
36260;BME280;22296;50.824;5.644;2022-12-10T10:15:45;100160.06;;;9.56;66.60
36260;BME280;22296;50.824;5.644;2022-12-10T10:18:14;100156.19;;;9.57;66.73
36260;BME280;22296;50.824;5.644;2022-12-10T10:20:44;100157.22;;;9.61;66.56
36260;BME280;22296;50.824;5.644;2022-12-10T10:23:12;100149.59;;;9.58;66.57
36260;BME280;22296;50.824;5.644;2022-12-10T10:25:39;100158.88;;;9.62;66.36
36260;BME280;22296;50.824;5.644;2022-12-10T10:28:07;100164.59;;;9.66;66.53
36260;BME280;22296;50.824;5.644;2022-12-10T10:30:36;100164.38;;;9.62;66.50
36260;BME280;22296;50.824;5.644;2022-12-10T10:33:07;100155.59;;;9.60;66.64
36260;BME280;22296;50.824;5.644;2022-12-10T10:35:42;100152.75;;;9.65;66.46
36260;BME280;22296;50.824;5.644;2022-12-10T10:38:16;100151.66;;;9.66;66.41
36260;BME280;22296;50.824;5.644;2022-12-10T10:40:46;100155.00;;;9.63;66.31
36260;BME280;22296;50.824;5.644;2022-12-10T10:43:17;100160.50;;;9.63;66.66
36260;BME280;22296;50.824;5.644;2022-12-10T10:45:56;100148.91;;;9.66;66.45
36260;BME280;22296;50.824;5.644;2022-12-10T10:48:25;100149.09;;;9.70;66.49
36260;BME280;22296;50.824;5.644;2022-12-10T10:50:55;100144.22;;;9.67;66.51
36260;BME280;22296;50.824;5.644;2022-12-10T10:53:44;100149.41;;;9.68;66.42
36260;BME280;22296;50.824;5.644;2022-12-10T10:58:52;100160.31;;;9.73;66.23
36260;BME280;22296;50.824;5.644;2022-12-10T11:01:20;100155.41;;;9.70;66.42
36260;BME280;22296;50.824;5.644;2022-12-10T11:03:48;100157.47;;;9.79;66.45
36260;BME280;22296;50.824;5.644;2022-12-10T11:06:15;100162.25;;;9.73;66.55
36260;BME280;22296;50.824;5.644;2022-12-10T11:08:43;100162.25;;;9.73;66.31
36260;BME280;22296;50.824;5.644;2022-12-10T11:11:12;100167.56;;;9.69;66.57
36260;BME280;22296;50.824;5.644;2022-12-10T11:13:39;100161.75;;;9.71;66.55
36260;BME280;22296;50.824;5.644;2022-12-10T11:16:10;100166.66;;;9.74;66.45
36260;BME280;22296;50.824;5.644;2022-12-10T11:21:25;100162.78;;;9.75;66.41
36260;BME280;22296;50.824;5.644;2022-12-10T11:23:52;100163.81;;;9.79;66.24
36260;BME280;22296;50.824;5.644;2022-12-10T11:45:06;100155.84;;;9.78;66.48
36260;BME280;22296;50.824;5.644;2022-12-10T11:47:52;100157.09;;;9.85;66.52
36260;BME280;22296;50.824;5.644;2022-12-10T11:50:30;100155.66;;;9.88;66.18
36260;BME280;22296;50.824;5.644;2022-12-10T12:14:04;100155.16;;;9.86;66.28
36260;BME280;22296;50.824;5.644;2022-12-10T12:16:37;100159.56;;;9.87;66.26
36260;BME280;22296;50.824;5.644;2022-12-10T12:19:11;100169.97;;;9.90;66.27
36260;BME280;22296;50.824;5.644;2022-12-10T12:21:40;100169.97;;;9.90;66.27
36260;BME280;22296;50.824;5.644;2022-12-10T12:24:12;100165.84;;;9.87;66.36
36260;BME280;22296;50.824;5.644;2022-12-10T12:26:43;100163.84;;;9.93;66.11
36260;BME280;22296;50.824;5.644;2022-12-10T12:29:28;100161.16;;;9.88;66.34
36260;BME280;22296;50.824;5.644;2022-12-10T12:32:04;100157.91;;;9.86;66.15
36260;BME280;22296;50.824;5.644;2022-12-10T12:35:09;100168.53;;;9.92;66.10
36260;BME280;22296;50.824;5.644;2022-12-10T12:37:35;100161.59;;;9.95;65.99
36260;BME280;22296;50.824;5.644;2022-12-10T12:40:03;100161.38;;;9.91;66.25
36260;BME280;22296;50.824;5.644;2022-12-10T12:42:48;100157.31;;;9.89;66.23
36260;BME280;22296;50.824;5.644;2022-12-10T12:45:30;100160.56;;;9.91;66.20
36260;BME280;22296;50.824;5.644;2022-12-10T12:50:43;100154.56;;;9.89;66.18
36260;BME280;22296;50.824;5.644;2022-12-10T12:53:14;100158.13;;;9.89;66.30
36260;BME280;22296;50.824;5.644;2022-12-10T13:03:53;100167.13;;;9.95;66.35
36260;BME280;22296;50.824;5.644;2022-12-10T13:06:30;100175.38;;;9.95;66.08
36260;BME280;22296;50.824;5.644;2022-12-10T13:11:31;100172.63;;;9.95;66.22
36260;BME280;22296;50.824;5.644;2022-12-10T13:22:01;100163.75;;;9.98;65.98
36260;BME280;22296;50.824;5.644;2022-12-10T13:29:29;100170.81;;;10.04;65.87
36260;BME280;22296;50.824;5.644;2022-12-10T13:32:19;100176.09;;;10.00;65.87
36260;BME280;22296;50.824;5.644;2022-12-10T13:34:46;100168.34;;;10.02;65.95
36260;BME280;22296;50.824;5.644;2022-12-10T13:37:15;100168.34;;;10.02;66.03
36260;BME280;22296;50.824;5.644;2022-12-10T13:39:46;100169.16;;;10.03;65.96
36260;BME280;22296;50.824;5.644;2022-12-10T13:45:00;100169.66;;;10.05;65.88
36260;BME280;22296;50.824;5.644;2022-12-10T13:50:04;100181.81;;;10.04;65.91
36260;BME280;22296;50.824;5.644;2022-12-10T13:52:42;100191.19;;;10.03;65.94
36260;BME280;22296;50.824;5.644;2022-12-10T13:55:16;100187.13;;;10.00;65.94
36260;BME280;22296;50.824;5.644;2022-12-10T14:05:55;100191.63;;;10.10;65.58
36260;BME280;22296;50.824;5.644;2022-12-10T14:08:27;100189.28;;;10.03;65.71
36260;BME280;22296;50.824;5.644;2022-12-10T14:10:55;100196.31;;;10.09;65.62
36260;BME280;22296;50.824;5.644;2022-12-10T14:13:25;100199.47;;;10.03;65.82
36260;BME280;22296;50.824;5.644;2022-12-10T14:15:56;100199.47;;;10.03;65.73
36260;BME280;22296;50.824;5.644;2022-12-10T14:18:26;100204.16;;;10.02;65.90
36260;BME280;22296;50.824;5.644;2022-12-10T14:20:53;100203.88;;;10.04;65.79
36260;BME280;22296;50.824;5.644;2022-12-10T14:23:25;100199.97;;;10.05;65.80
36260;BME280;22296;50.824;5.644;2022-12-10T14:26:15;100204.38;;;10.06;65.92
36260;BME280;22296;50.824;5.644;2022-12-10T14:28:46;100209.38;;;10.04;65.68
36260;BME280;22296;50.824;5.644;2022-12-10T14:31:18;100205.91;;;10.12;65.70
36260;BME280;22296;50.824;5.644;2022-12-10T14:33:46;100208.09;;;10.15;65.38
36260;BME280;22296;50.824;5.644;2022-12-10T14:36:16;100208.66;;;10.12;65.55
36260;BME280;22296;50.824;5.644;2022-12-10T14:38:43;100213.13;;;10.08;65.67
36260;BME280;22296;50.824;5.644;2022-12-10T14:41:11;100217.53;;;10.09;65.53
36260;BME280;22296;50.824;5.644;2022-12-10T14:43:41;100205.47;;;10.05;65.76
36260;BME280;22296;50.824;5.644;2022-12-10T14:46:28;100216.50;;;10.05;65.66
36260;BME280;22296;50.824;5.644;2022-12-10T14:48:54;100216.50;;;10.05;65.80
36260;BME280;22296;50.824;5.644;2022-12-10T14:51:22;100216.31;;;10.01;65.71
36260;BME280;22296;50.824;5.644;2022-12-10T14:53:50;100216.31;;;10.01;65.84
36260;BME280;22296;50.824;5.644;2022-12-10T14:58:52;100220.91;;;10.06;65.85
36260;BME280;22296;50.824;5.644;2022-12-10T15:03:49;100206.09;;;10.02;65.69
36260;BME280;22296;50.824;5.644;2022-12-10T15:06:17;100217.63;;;10.04;65.76
36260;BME280;22296;50.824;5.644;2022-12-10T15:08:45;100211.81;;;10.05;65.75
36260;BME280;22296;50.824;5.644;2022-12-10T15:11:16;100220.41;;;10.04;65.54
36260;BME280;22296;50.824;5.644;2022-12-10T15:13:51;100232.22;;;10.04;65.55
36260;BME280;22296;50.824;5.644;2022-12-10T15:16:39;100225.19;;;9.98;65.75
36260;BME280;22296;50.824;5.644;2022-12-10T15:19:07;100228.44;;;10.00;65.83
36260;BME280;22296;50.824;5.644;2022-12-10T15:21:40;100222.72;;;9.97;65.81
36260;BME280;22296;50.824;5.644;2022-12-10T15:24:09;100223.56;;;10.11;65.54